Terminal Aerodrome Forecast
Issued by NWS Atlanta, GA

Home | Current Version | Previous Version | Text Only | Print | Product List | Glossary On
Versions: 1 2 3 4 5 6 7 8 9 10 11 12 13 14 15 16 17 18 19 20 21 22 23 24 25 26
000
FTUS42 KFFC 061723
TAFCSG
TAF
KCSG 061723Z 0618/0718 27006KT P6SM BKN035
     FM062000 28007KT P6SM VCSH SCT040
     FM070200 27003KT P6SM FEW250
     FM070300 00000KT P6SM FEW250
     FM071600 28005KT P6SM SCT045=

USA.gov is the U.S. government's official web portal to all federal, state and local government web resources and services.